Athens, Ohio
Current Conditions -  °F | °C
As of 1:55 AM on Friday 28 Nov 2014 (Local Time) from KUNI Reporting Station
Light Snow Light Snow  
Wind Chill: 22°   Ceiling: 4800
Heat Index: 29°   Visibility: 10mi
Dew Point: 21°   Wind: 7mph
Humidity: 73%   Direction: 270°W
Pressure: 30.34"   Gusts: NA
Location:  39.33°N, 82.1°W
Report Text: KUNI 280655Z AUTO 27006KT 10SM -SN SCT042 OVC048 M02/M06 A3034 RMK AO2 T10181060
Loading
Personal Weather Stations






























Interactive Weather Map New forecast layout! Learn more

10-Day Weather Forecast

Advertisements
Track Severe Weather on mobile